createdAt,value
2022-08-19T00:01:32.275Z,29.14
2022-08-19T00:04:08.572Z,29.11
2022-08-19T00:06:38.514Z,29.12
2022-08-19T00:09:09.705Z,29.09
2022-08-19T00:11:38.439Z,29.08
2022-08-19T00:14:08.306Z,29.08
2022-08-19T00:16:36.461Z,29.07
2022-08-19T00:19:05.677Z,29.07
2022-08-19T00:21:33.623Z,29.06
2022-08-19T00:24:02.112Z,29.03
2022-08-19T00:26:31.452Z,29.01
2022-08-19T00:29:00.904Z,28.94
2022-08-19T00:31:30.631Z,28.92
2022-08-19T00:33:58.880Z,28.88
2022-08-19T00:36:27.472Z,28.85
2022-08-19T00:38:55.328Z,28.81
2022-08-19T00:41:26.300Z,28.73
2022-08-19T00:44:05.566Z,28.74
2022-08-19T00:46:34.664Z,28.67
2022-08-19T00:49:07.544Z,28.63
2022-08-19T00:51:35.684Z,28.64
2022-08-19T00:54:04.723Z,28.63
2022-08-19T00:56:33.312Z,28.66
2022-08-19T00:59:03.822Z,28.66
2022-08-19T01:01:31.971Z,28.65
2022-08-19T01:04:00.124Z,28.64
2022-08-19T01:06:28.428Z,28.61
2022-08-19T01:08:58.747Z,28.58
2022-08-19T01:11:28.814Z,28.61
2022-08-19T01:13:56.879Z,28.63
2022-08-19T01:16:29.145Z,28.63
2022-08-19T01:18:57.556Z,28.65
2022-08-19T01:21:33.287Z,28.63
2022-08-19T01:24:03.181Z,28.68
2022-08-19T01:26:31.834Z,28.72
2022-08-19T01:29:02.003Z,28.70
2022-08-19T01:31:32.793Z,28.83
2022-08-19T01:34:02.452Z,28.82
2022-08-19T01:36:34.099Z,28.82
2022-08-19T01:39:08.056Z,28.84
2022-08-19T01:41:37.079Z,28.85
2022-08-19T01:44:18.120Z,28.84
2022-08-19T01:46:50.272Z,28.82
2022-08-19T01:49:21.257Z,28.81
2022-08-19T01:51:49.724Z,28.78
2022-08-19T01:54:27.001Z,28.73
2022-08-19T01:57:01.312Z,28.68
2022-08-19T01:59:30.488Z,28.66
2022-08-19T02:01:58.709Z,28.64
2022-08-19T02:04:27.200Z,28.64
2022-08-19T02:06:55.152Z,28.65
2022-08-19T02:09:24.477Z,28.58
2022-08-19T02:11:52.383Z,28.54
2022-08-19T02:14:20.323Z,28.50
2022-08-19T02:16:48.255Z,28.43
2022-08-19T02:19:16.133Z,28.45
2022-08-19T02:21:44.558Z,28.48
2022-08-19T02:24:14.265Z,28.44
2022-08-19T02:26:49.341Z,28.40
2022-08-19T02:29:22.336Z,28.39
2022-08-19T02:31:51.269Z,28.34
2022-08-19T02:34:22.225Z,28.15
2022-08-19T02:36:51.945Z,27.95
2022-08-19T02:39:20.105Z,27.83
2022-08-19T02:41:50.404Z,27.81
2022-08-19T02:44:29.189Z,27.64
2022-08-19T02:46:59.373Z,27.47
2022-08-19T02:49:27.297Z,27.26
2022-08-19T02:51:55.319Z,27.21
2022-08-19T02:54:23.231Z,27.24
2022-08-19T02:56:52.714Z,27.22
2022-08-19T02:59:22.903Z,27.18
2022-08-19T03:01:51.075Z,27.11
2022-08-19T03:04:20.160Z,27.14
2022-08-19T03:06:49.465Z,27.14
2022-08-19T03:09:19.220Z,27.19
2022-08-19T03:11:47.298Z,27.27
2022-08-19T03:14:20.248Z,27.33
2022-08-19T03:16:51.255Z,27.36
2022-08-19T03:19:22.211Z,27.35
2022-08-19T03:21:51.486Z,27.29
2022-08-19T03:24:20.668Z,27.13
2022-08-19T03:26:50.757Z,26.89
2022-08-19T03:29:30.180Z,26.69
2022-08-19T03:32:01.681Z,26.76
2022-08-19T03:34:32.054Z,26.48
2022-08-19T03:37:04.625Z,26.29
2022-08-19T03:39:32.903Z,26.29
2022-08-19T03:42:31.736Z,26.44
2022-08-19T03:44:51.562Z,26.47
2022-08-19T03:47:22.425Z,26.42
2022-08-19T03:49:50.597Z,26.42
2022-08-19T03:52:18.500Z,26.38
2022-08-19T03:54:46.430Z,26.33
2022-08-19T03:57:14.304Z,26.30
2022-08-19T03:59:42.288Z,26.41
2022-08-19T04:02:13.980Z,26.52
2022-08-19T04:04:45.057Z,26.62
2022-08-19T04:07:16.740Z,26.65
2022-08-19T04:09:45.148Z,26.46
2022-08-19T04:12:13.245Z,26.41
2022-08-19T04:14:41.623Z,26.42
2022-08-19T04:17:13.892Z,26.60
2022-08-19T04:19:44.137Z,26.69
2022-08-19T04:22:12.953Z,26.87
2022-08-19T04:24:40.902Z,26.97
2022-08-19T04:27:09.032Z,27.00
2022-08-19T04:29:39.189Z,27.00
2022-08-19T04:32:09.437Z,26.87
2022-08-19T04:35:02.530Z,26.74
2022-08-19T04:37:34.870Z,26.71
2022-08-19T04:40:24.893Z,26.69
2022-08-19T04:42:53.070Z,26.82
2022-08-19T04:45:22.956Z,26.92
2022-08-19T04:47:58.145Z,27.04
2022-08-19T04:50:29.064Z,27.09
2022-08-19T04:52:57.676Z,27.08
2022-08-19T04:55:27.375Z,27.16
2022-08-19T04:57:55.841Z,27.09
2022-08-19T05:00:23.844Z,27.09
2022-08-19T05:02:51.984Z,27.16
2022-08-19T05:05:20.749Z,27.21
2022-08-19T05:07:50.122Z,27.24
2022-08-19T05:10:18.136Z,27.34
2022-08-19T05:12:47.228Z,27.48
2022-08-19T05:15:15.582Z,27.53
2022-08-19T05:18:04.188Z,27.65
2022-08-19T05:20:49.907Z,27.71
2022-08-19T05:23:22.831Z,27.71
2022-08-19T05:25:52.477Z,27.76
2022-08-19T05:28:20.972Z,27.73
2022-08-19T05:30:51.714Z,27.71
2022-08-19T05:33:20.269Z,27.71
2022-08-19T05:35:49.272Z,27.75
2022-08-19T05:38:19.152Z,27.74
2022-08-19T05:40:47.938Z,27.77
2022-08-19T05:43:17.451Z,27.80
2022-08-19T05:45:45.628Z,27.77
2022-08-19T05:48:14.144Z,27.74
2022-08-19T05:50:43.748Z,27.72
2022-08-19T05:53:11.804Z,27.77
2022-08-19T05:55:41.296Z,27.78
2022-08-19T05:58:09.491Z,27.84
2022-08-19T06:00:38.403Z,27.95
2022-08-19T06:03:12.695Z,27.99
2022-08-19T06:05:50.252Z,27.96
2022-08-19T06:08:34.627Z,27.96
2022-08-19T06:11:18.900Z,28.01
2022-08-19T06:13:48.519Z,28.04
2022-08-19T06:16:20.526Z,28.09
2022-08-19T06:18:48.575Z,28.14
2022-08-19T06:21:16.484Z,28.23
2022-08-19T06:23:44.306Z,28.25
2022-08-19T06:26:14.217Z,28.27
2022-08-19T06:28:47.356Z,28.32
2022-08-19T06:31:17.047Z,28.40
2022-08-19T06:33:45.867Z,28.49
2022-08-19T06:36:21.501Z,28.61
2022-08-19T06:38:53.255Z,28.72
2022-08-19T06:41:21.580Z,28.86
2022-08-19T06:43:50.884Z,29.00
2022-08-19T06:46:22.514Z,29.16
2022-08-19T06:48:54.214Z,29.32
2022-08-19T06:51:23.414Z,29.46
2022-08-19T06:53:55.056Z,29.57
2022-08-19T06:56:31.494Z,29.65
2022-08-19T06:59:01.470Z,29.76
2022-08-19T07:01:29.485Z,29.85
2022-08-19T07:03:57.538Z,29.93
2022-08-19T07:06:43.778Z,30.02
2022-08-19T07:09:15.050Z,30.10
2022-08-19T07:11:47.983Z,30.14
2022-08-19T07:14:20.528Z,30.18
2022-08-19T07:16:51.142Z,30.18
2022-08-19T07:19:20.218Z,30.17
2022-08-19T07:21:48.887Z,30.19
2022-08-19T07:24:17.518Z,30.20
2022-08-19T07:26:45.621Z,30.19
2022-08-19T07:29:14.157Z,30.18
2022-08-19T07:31:43.759Z,30.18
2022-08-19T07:34:15.642Z,30.21
2022-08-19T07:36:45.564Z,30.24
2022-08-19T07:39:16.597Z,30.08
2022-08-19T07:41:45.311Z,30.31
2022-08-19T07:44:13.820Z,30.37
2022-08-19T07:46:48.147Z,30.40
2022-08-19T07:49:20.059Z,30.41
2022-08-19T07:51:49.903Z,30.41
2022-08-19T07:54:18.464Z,30.40
2022-08-19T07:56:46.380Z,30.42
2022-08-19T07:59:14.422Z,30.45
2022-08-19T08:01:43.638Z,30.46
2022-08-19T08:04:29.365Z,30.56
2022-08-19T08:07:14.706Z,30.60
2022-08-19T08:09:44.466Z,30.95
2022-08-19T08:12:33.541Z,31.16
2022-08-19T08:15:08.412Z,31.38
2022-08-19T08:17:49.357Z,31.54
2022-08-19T08:20:21.102Z,31.65
2022-08-19T08:23:07.474Z,31.78
2022-08-19T08:25:38.221Z,31.83
2022-08-19T08:28:09.138Z,31.84
2022-08-19T08:30:42.472Z,31.91
2022-08-19T08:35:47.925Z,31.94
2022-08-19T08:38:16.509Z,31.84
2022-08-19T08:40:49.529Z,31.84
2022-08-19T08:43:25.506Z,31.75
2022-08-19T08:46:01.444Z,31.69
2022-08-19T08:48:40.216Z,31.69
2022-08-19T08:51:13.023Z,31.71
2022-08-19T08:53:43.143Z,31.71
2022-08-19T08:56:13.437Z,31.67
2022-08-19T08:58:58.128Z,31.61
2022-08-19T09:01:29.057Z,31.56
2022-08-19T09:04:03.004Z,31.56
2022-08-19T09:06:40.728Z,31.51
2022-08-19T09:09:18.727Z,31.45
2022-08-19T09:11:58.005Z,31.37
2022-08-19T09:14:51.296Z,31.38
2022-08-19T09:17:29.019Z,31.41
2022-08-19T09:20:05.332Z,31.41
2022-08-19T09:22:34.177Z,31.41
2022-08-19T09:25:02.318Z,31.43
2022-08-19T09:27:42.731Z,31.48
2022-08-19T09:30:16.048Z,31.51
2022-08-19T09:32:44.900Z,31.55
2022-08-19T09:35:16.058Z,31.60
2022-08-19T09:37:45.301Z,31.65
2022-08-19T09:40:14.357Z,31.69
2022-08-19T09:42:49.702Z,31.79
2022-08-19T09:45:21.882Z,31.89
2022-08-19T09:47:52.038Z,31.94
2022-08-19T09:50:24.569Z,32.06
2022-08-19T09:52:57.543Z,32.13
2022-08-19T09:55:31.840Z,32.25
2022-08-19T09:58:02.239Z,32.39
2022-08-19T10:00:31.162Z,32.52
2022-08-19T10:02:59.076Z,32.65
2022-08-19T10:05:48.646Z,32.82
2022-08-19T10:08:18.110Z,33.02
2022-08-19T10:10:47.168Z,33.18
2022-08-19T10:13:17.149Z,33.32
2022-08-19T10:15:47.936Z,33.40
2022-08-19T10:18:17.669Z,33.33
2022-08-19T10:20:51.554Z,33.33
2022-08-19T10:23:21.290Z,33.39
2022-08-19T10:25:50.599Z,33.33
2022-08-19T10:28:19.482Z,33.29
2022-08-19T10:30:48.769Z,33.26
2022-08-19T10:33:38.296Z,33.21
2022-08-19T10:36:10.525Z,33.10
2022-08-19T10:38:39.285Z,33.15
2022-08-19T10:41:19.981Z,33.12
2022-08-19T10:43:48.973Z,33.11
2022-08-19T10:46:18.115Z,33.18
2022-08-19T10:48:47.032Z,33.19
2022-08-19T10:51:33.888Z,33.16
2022-08-19T10:54:02.969Z,33.17
2022-08-19T10:56:53.092Z,33.20
2022-08-19T10:59:22.661Z,33.34
2022-08-19T11:01:56.783Z,33.60
2022-08-19T11:04:28.783Z,33.84
2022-08-19T11:06:58.771Z,34.13
2022-08-19T11:09:33.614Z,34.34
2022-08-19T11:12:03.014Z,34.53
2022-08-19T11:14:34.852Z,34.61
2022-08-19T11:17:10.852Z,34.74
2022-08-19T11:19:43.652Z,34.91
2022-08-19T11:22:16.119Z,34.88
2022-08-19T11:24:47.449Z,34.79
2022-08-19T11:27:15.361Z,34.86
2022-08-19T11:29:43.241Z,34.85
2022-08-19T11:32:13.822Z,34.85
2022-08-19T11:34:41.769Z,34.93
2022-08-19T11:37:10.004Z,35.04
2022-08-19T11:39:40.066Z,35.03
2022-08-19T11:42:29.576Z,35.01
2022-08-19T11:44:57.756Z,35.04
2022-08-19T11:47:26.005Z,35.08
2022-08-19T11:49:54.418Z,35.17
2022-08-19T11:52:22.332Z,35.20
2022-08-19T11:54:51.586Z,35.26
2022-08-19T11:57:20.643Z,35.36
2022-08-19T11:59:52.649Z,35.32
2022-08-19T12:02:21.065Z,35.15
2022-08-19T12:04:49.364Z,35.15
2022-08-19T12:07:17.545Z,35.12
2022-08-19T12:09:45.893Z,35.09
2022-08-19T12:12:17.908Z,34.95
2022-08-19T12:14:47.441Z,34.83
2022-08-19T12:17:15.417Z,34.92
2022-08-19T12:19:43.309Z,35.04
2022-08-19T12:22:11.266Z,35.15
2022-08-19T12:24:39.151Z,35.23
2022-08-19T12:27:12.554Z,35.09
2022-08-19T12:29:42.478Z,35.11
2022-08-19T12:32:12.211Z,35.21
2022-08-19T12:34:40.940Z,35.24
2022-08-19T12:37:09.504Z,35.30
2022-08-19T12:39:40.038Z,35.33
2022-08-19T12:42:09.977Z,35.29
2022-08-19T12:44:38.369Z,35.26
2022-08-19T12:47:11.263Z,35.34
2022-08-19T12:49:54.022Z,35.36
2022-08-19T12:52:23.817Z,35.53
2022-08-19T12:54:53.826Z,35.60
2022-08-19T12:57:24.377Z,35.81
2022-08-19T13:00:01.340Z,36.13
2022-08-19T13:02:33.028Z,36.35
2022-08-19T13:05:09.619Z,36.54
2022-08-19T13:07:39.115Z,36.69
2022-08-19T13:10:08.964Z,36.85
2022-08-19T13:12:38.535Z,36.91
2022-08-19T13:15:10.871Z,36.84
2022-08-19T13:17:42.029Z,36.65
2022-08-19T13:20:12.038Z,36.41
2022-08-19T13:22:40.155Z,36.15
2022-08-19T13:25:09.593Z,35.81
2022-08-19T13:27:38.156Z,35.48
2022-08-19T13:30:36.803Z,35.18
2022-08-19T13:33:12.698Z,34.93
2022-08-19T13:35:42.371Z,34.69
2022-08-19T13:38:11.678Z,34.48
2022-08-19T13:40:42.024Z,34.25
2022-08-19T13:43:22.628Z,34.03
2022-08-19T13:45:57.368Z,33.81
2022-08-19T13:48:28.446Z,33.63
2022-08-19T13:50:56.919Z,33.49
2022-08-19T13:53:25.542Z,33.38
2022-08-19T13:55:54.583Z,33.24
2022-08-19T13:58:23.184Z,33.12
2022-08-19T14:00:51.160Z,32.69
2022-08-19T14:03:19.209Z,32.37
2022-08-19T14:05:48.655Z,32.21
2022-08-19T14:08:17.211Z,31.95
2022-08-19T14:10:45.643Z,31.63
2022-08-19T14:13:16.857Z,31.44
2022-08-19T14:15:45.071Z,31.48
2022-08-19T14:18:13.407Z,31.53
2022-08-19T14:20:41.438Z,31.46
2022-08-19T14:23:10.745Z,31.45
2022-08-19T14:25:38.694Z,31.59
2022-08-19T14:28:07.666Z,31.67
2022-08-19T14:30:38.580Z,31.87
2022-08-19T14:33:08.218Z,31.98
2022-08-19T14:35:36.468Z,31.95
2022-08-19T14:38:05.772Z,31.94
2022-08-19T14:40:35.690Z,32.22
2022-08-19T14:43:06.459Z,32.36
2022-08-19T14:45:36.547Z,32.18
2022-08-19T14:48:05.641Z,32.15
2022-08-19T14:50:33.935Z,32.06
2022-08-19T14:53:09.327Z,31.84
2022-08-19T14:55:45.201Z,31.65
2022-08-19T14:58:29.435Z,31.60
2022-08-19T15:01:00.548Z,31.30
2022-08-19T15:03:29.388Z,31.09
2022-08-19T15:05:58.257Z,30.92
2022-08-19T15:08:26.980Z,30.81
2022-08-19T15:10:57.041Z,30.69
2022-08-19T15:13:25.800Z,30.55
2022-08-19T15:15:53.880Z,30.50
2022-08-19T15:18:22.653Z,30.39
2022-08-19T15:20:51.855Z,30.29
2022-08-19T15:23:21.152Z,30.17
2022-08-19T15:25:52.940Z,30.17
2022-08-19T15:28:22.484Z,30.08
2022-08-19T15:30:50.934Z,29.92
2022-08-19T15:33:20.609Z,29.86
2022-08-19T15:35:50.862Z,29.79
2022-08-19T15:38:20.624Z,29.75
2022-08-19T15:40:50.199Z,29.74
2022-08-19T15:43:21.228Z,29.64
2022-08-19T15:45:50.708Z,29.64
2022-08-19T15:48:18.724Z,29.57
2022-08-19T15:50:46.600Z,29.56
2022-08-19T15:53:14.520Z,29.42
2022-08-19T15:55:45.511Z,29.35
2022-08-19T15:58:33.132Z,29.19
2022-08-19T16:01:23.645Z,29.05
2022-08-19T16:04:13.979Z,29.06
2022-08-19T16:06:46.522Z,28.97
2022-08-19T16:09:15.949Z,28.89
2022-08-19T16:11:45.949Z,28.85
2022-08-19T16:14:14.572Z,28.75
2022-08-19T16:16:47.175Z,28.68
2022-08-19T16:19:17.044Z,28.56
2022-08-19T16:21:46.562Z,28.44
2022-08-19T16:24:16.529Z,28.35
2022-08-19T16:26:45.537Z,28.40
2022-08-19T16:29:14.467Z,28.11
2022-08-19T16:31:46.111Z,27.87
2022-08-19T16:34:15.210Z,27.92
2022-08-19T16:36:43.461Z,27.91
2022-08-19T16:39:12.554Z,27.89
2022-08-19T16:41:41.492Z,27.78
2022-08-19T16:44:11.977Z,27.58
2022-08-19T16:46:41.599Z,27.44
2022-08-19T16:49:12.387Z,27.19
2022-08-19T16:51:40.541Z,26.54
2022-08-19T16:54:09.113Z,26.28
2022-08-19T16:56:37.129Z,26.08
2022-08-19T16:59:06.475Z,25.82
2022-08-19T17:01:34.471Z,25.51
2022-08-19T17:04:02.588Z,25.41
2022-08-19T17:06:36.588Z,25.63
2022-08-19T17:09:07.123Z,26.01
2022-08-19T17:11:35.604Z,26.22
2022-08-19T17:14:04.576Z,26.35
2022-08-19T17:16:34.859Z,26.45
2022-08-19T17:19:04.935Z,26.50
2022-08-19T17:21:36.268Z,26.55
2022-08-19T17:24:08.596Z,26.40
2022-08-19T17:26:37.434Z,26.23
2022-08-19T17:29:07.150Z,26.41
2022-08-19T17:31:35.750Z,26.37
2022-08-19T17:34:03.821Z,26.07
2022-08-19T17:36:34.967Z,25.71
2022-08-19T17:39:05.543Z,25.85
2022-08-19T17:41:35.055Z,25.95
2022-08-19T17:44:03.321Z,26.03
2022-08-19T17:46:31.238Z,26.15
2022-08-19T17:48:59.351Z,26.23
2022-08-19T17:51:42.381Z,26.23
2022-08-19T17:54:13.917Z,26.23
2022-08-19T17:56:41.964Z,26.37
2022-08-19T17:59:11.806Z,26.35
2022-08-19T18:01:52.094Z,26.34
2022-08-19T18:04:21.128Z,26.38
2022-08-19T18:06:53.106Z,26.42
2022-08-19T18:09:24.594Z,26.47
2022-08-19T18:11:54.207Z,26.54
2022-08-19T18:14:32.793Z,26.43
2022-08-19T18:17:05.571Z,26.54
2022-08-19T18:19:41.191Z,26.40
2022-08-19T18:22:12.784Z,26.20
2022-08-19T18:24:41.573Z,26.11
2022-08-19T18:27:09.924Z,26.14
2022-08-19T18:29:38.593Z,26.09
2022-08-19T18:32:09.080Z,25.82
2022-08-19T18:34:37.460Z,25.39
2022-08-19T18:37:05.884Z,25.17
2022-08-19T18:39:52.696Z,25.09
2022-08-19T18:42:38.098Z,24.85
2022-08-19T18:45:25.258Z,24.81
2022-08-19T18:48:23.997Z,25.02
2022-08-19T18:50:58.298Z,24.82
2022-08-19T18:53:27.208Z,24.63
2022-08-19T18:55:57.041Z,24.48
2022-08-19T18:58:26.589Z,24.35
2022-08-19T19:00:57.369Z,24.41
2022-08-19T19:03:26.925Z,24.38
2022-08-19T19:05:55.242Z,24.52
2022-08-19T19:08:27.336Z,24.57
2022-08-19T19:10:58.919Z,24.51
2022-08-19T19:13:29.491Z,24.52
2022-08-19T19:15:57.450Z,24.36
2022-08-19T19:18:25.340Z,24.26
2022-08-19T19:20:53.312Z,24.08
2022-08-19T19:23:22.414Z,23.83
2022-08-19T19:25:52.217Z,23.73
2022-08-19T19:28:25.314Z,23.83
2022-08-19T19:30:54.311Z,23.82
2022-08-19T19:33:22.428Z,23.87
2022-08-19T19:35:50.332Z,23.93
2022-08-19T19:38:18.445Z,23.99
2022-08-19T19:40:46.507Z,23.93
2022-08-19T19:43:17.361Z,23.78
2022-08-19T19:45:48.205Z,23.80
2022-08-19T19:48:16.607Z,23.88
2022-08-19T19:50:44.760Z,23.83
2022-08-19T19:53:15.044Z,23.99
2022-08-19T19:55:43.195Z,24.04
2022-08-19T19:58:11.205Z,24.13
2022-08-19T20:00:39.150Z,24.16
2022-08-19T20:03:09.092Z,24.27
2022-08-19T20:05:36.989Z,24.36
2022-08-19T20:08:22.715Z,24.33
2022-08-19T20:10:50.756Z,24.45
2022-08-19T20:13:18.844Z,24.70
2022-08-19T20:15:46.733Z,24.85
2022-08-19T20:18:16.073Z,24.95
2022-08-19T20:20:45.060Z,25.01
2022-08-19T20:23:13.285Z,25.11
2022-08-19T20:25:41.167Z,25.23
2022-08-19T20:28:09.302Z,25.28
2022-08-19T20:30:40.453Z,25.31
2022-08-19T20:33:16.007Z,25.35
2022-08-19T20:35:44.932Z,25.30
2022-08-19T20:38:13.580Z,25.28
2022-08-19T20:40:41.535Z,24.93
2022-08-19T20:43:11.839Z,24.48
2022-08-19T20:45:40.074Z,24.29
2022-08-19T20:48:10.447Z,24.13
2022-08-19T20:50:40.628Z,23.88
2022-08-19T20:53:14.247Z,23.86
2022-08-19T20:55:45.381Z,23.72
2022-08-19T20:58:14.004Z,23.75
2022-08-19T21:00:43.808Z,23.85
2022-08-19T21:03:11.922Z,23.91
2022-08-19T21:05:41.208Z,23.94
2022-08-19T21:08:09.192Z,23.79
2022-08-19T21:10:40.534Z,23.59
2022-08-19T21:13:10.227Z,23.48
2022-08-19T21:15:40.565Z,23.49
2022-08-19T21:18:08.861Z,23.43
2022-08-19T21:20:37.138Z,23.49
2022-08-19T21:23:07.378Z,23.47
2022-08-19T21:25:35.818Z,23.45
2022-08-19T21:28:04.272Z,23.50
2022-08-19T21:30:32.222Z,23.53
2022-08-19T21:33:00.909Z,23.53
2022-08-19T21:35:29.464Z,23.38
2022-08-19T21:37:57.810Z,23.34
2022-08-19T21:40:28.019Z,23.36
2022-08-19T21:42:56.099Z,23.56
2022-08-19T21:45:24.326Z,23.72
2022-08-19T21:47:52.160Z,23.62
2022-08-19T21:50:20.540Z,23.28
2022-08-19T21:52:48.460Z,23.26
2022-08-19T21:55:17.177Z,23.54
2022-08-19T21:57:46.979Z,23.79
2022-08-19T22:00:18.518Z,23.97
2022-08-19T22:02:46.865Z,23.80
2022-08-19T22:05:15.139Z,23.63
2022-08-19T22:07:43.662Z,23.58
2022-08-19T22:10:11.910Z,23.69
2022-08-19T22:12:47.267Z,23.70
2022-08-19T22:15:22.215Z,23.69
2022-08-19T22:17:51.112Z,23.73
2022-08-19T22:20:21.926Z,23.82
2022-08-19T22:22:52.849Z,23.61
2022-08-19T22:25:31.272Z,23.72
2022-08-19T22:28:01.776Z,23.80
2022-08-19T22:30:34.038Z,23.76
2022-08-19T22:33:04.747Z,23.87
2022-08-19T22:35:35.821Z,23.97
2022-08-19T22:38:06.374Z,23.96
2022-08-19T22:40:36.836Z,24.02
2022-08-19T22:43:07.888Z,23.93
2022-08-19T22:45:38.021Z,23.88
2022-08-19T22:48:07.770Z,23.85
2022-08-19T22:50:36.096Z,23.87
2022-08-19T22:53:03.977Z,24.03
2022-08-19T22:55:32.205Z,24.02
2022-08-19T22:58:00.189Z,23.87
2022-08-19T23:00:29.648Z,23.74
2022-08-19T23:02:59.386Z,23.59
2022-08-19T23:05:29.593Z,23.36
2022-08-19T23:07:58.526Z,23.22
2022-08-19T23:10:28.964Z,23.07
2022-08-19T23:12:59.122Z,22.97
2022-08-19T23:15:31.086Z,22.89
2022-08-19T23:18:02.838Z,22.76
2022-08-19T23:20:34.438Z,22.79
2022-08-19T23:23:04.792Z,22.92
2022-08-19T23:25:35.216Z,23.02
2022-08-19T23:28:21.404Z,23.09
2022-08-19T23:30:51.077Z,23.17
2022-08-19T23:33:24.658Z,23.11
2022-08-19T23:35:55.673Z,23.08
2022-08-19T23:38:24.868Z,23.00
2022-08-19T23:40:54.765Z,22.84
2022-08-19T23:43:24.537Z,22.80
2022-08-19T23:45:53.788Z,23.05
2022-08-19T23:48:28.400Z,23.33
2022-08-19T23:50:57.444Z,23.56
2022-08-19T23:53:25.485Z,23.59
2022-08-19T23:55:53.660Z,23.66
2022-08-19T23:58:22.514Z,23.72
